sensor_id;sensor_type;location;lat;lon;timestamp;P1;durP1;ratioP1;P2;durP2;ratioP2
21420;SDS011;10871;50.144;8.428;2023-04-15T00:01:09;5.45;;;3.92;;
21420;SDS011;10871;50.144;8.428;2023-04-15T00:03:36;8.02;;;4.05;;
21420;SDS011;10871;50.144;8.428;2023-04-15T00:06:03;7.75;;;3.28;;
21420;SDS011;10871;50.144;8.428;2023-04-15T00:08:30;6.30;;;3.55;;
21420;SDS011;10871;50.144;8.428;2023-04-15T00:10:57;8.07;;;3.63;;
21420;SDS011;10871;50.144;8.428;2023-04-15T00:13:28;7.57;;;4.60;;
21420;SDS011;10871;50.144;8.428;2023-04-15T00:15:55;6.18;;;3.95;;
21420;SDS011;10871;50.144;8.428;2023-04-15T00:18:23;14.73;;;4.72;;
21420;SDS011;10871;50.144;8.428;2023-04-15T00:20:50;7.68;;;4.50;;
21420;SDS011;10871;50.144;8.428;2023-04-15T00:23:17;8.38;;;4.50;;
21420;SDS011;10871;50.144;8.428;2023-04-15T00:25:44;8.30;;;4.15;;
21420;SDS011;10871;50.144;8.428;2023-04-15T00:28:11;8.35;;;4.45;;
21420;SDS011;10871;50.144;8.428;2023-04-15T00:30:38;6.75;;;4.45;;
21420;SDS011;10871;50.144;8.428;2023-04-15T00:33:04;4.78;;;3.58;;
21420;SDS011;10871;50.144;8.428;2023-04-15T00:35:32;8.82;;;4.00;;
21420;SDS011;10871;50.144;8.428;2023-04-15T00:37:58;4.78;;;3.33;;
21420;SDS011;10871;50.144;8.428;2023-04-15T00:40:26;6.68;;;3.72;;
21420;SDS011;10871;50.144;8.428;2023-04-15T00:42:53;7.47;;;3.65;;
21420;SDS011;10871;50.144;8.428;2023-04-15T00:45:19;6.90;;;4.00;;
21420;SDS011;10871;50.144;8.428;2023-04-15T00:47:46;8.13;;;4.03;;
21420;SDS011;10871;50.144;8.428;2023-04-15T00:50:14;7.07;;;4.28;;
21420;SDS011;10871;50.144;8.428;2023-04-15T00:52:43;7.13;;;3.92;;
21420;SDS011;10871;50.144;8.428;2023-04-15T00:55:13;8.50;;;4.10;;
21420;SDS011;10871;50.144;8.428;2023-04-15T00:57:40;7.38;;;3.88;;
21420;SDS011;10871;50.144;8.428;2023-04-15T01:00:07;7.60;;;4.90;;
21420;SDS011;10871;50.144;8.428;2023-04-15T01:02:34;10.93;;;4.32;;
21420;SDS011;10871;50.144;8.428;2023-04-15T01:05:02;10.48;;;4.78;;
21420;SDS011;10871;50.144;8.428;2023-04-15T01:07:32;10.10;;;5.63;;
21420;SDS011;10871;50.144;8.428;2023-04-15T01:10:01;10.57;;;5.18;;
21420;SDS011;10871;50.144;8.428;2023-04-15T01:12:28;11.10;;;5.13;;
21420;SDS011;10871;50.144;8.428;2023-04-15T01:14:58;9.88;;;4.90;;
21420;SDS011;10871;50.144;8.428;2023-04-15T01:17:24;11.65;;;5.47;;
21420;SDS011;10871;50.144;8.428;2023-04-15T01:19:51;8.80;;;4.50;;
21420;SDS011;10871;50.144;8.428;2023-04-15T01:22:18;10.18;;;5.07;;
21420;SDS011;10871;50.144;8.428;2023-04-15T01:25:00;6.57;;;4.22;;
21420;SDS011;10871;50.144;8.428;2023-04-15T01:27:31;7.65;;;4.47;;
21420;SDS011;10871;50.144;8.428;2023-04-15T01:29:58;8.88;;;4.45;;
21420;SDS011;10871;50.144;8.428;2023-04-15T01:32:24;8.50;;;4.90;;
21420;SDS011;10871;50.144;8.428;2023-04-15T01:34:51;8.48;;;4.53;;
21420;SDS011;10871;50.144;8.428;2023-04-15T01:37:22;9.05;;;4.25;;
21420;SDS011;10871;50.144;8.428;2023-04-15T01:39:51;7.28;;;4.72;;
21420;SDS011;10871;50.144;8.428;2023-04-15T01:42:17;8.13;;;4.47;;
21420;SDS011;10871;50.144;8.428;2023-04-15T01:44:44;8.95;;;4.70;;
21420;SDS011;10871;50.144;8.428;2023-04-15T01:47:11;9.95;;;4.78;;
21420;SDS011;10871;50.144;8.428;2023-04-15T01:49:40;10.15;;;4.90;;
21420;SDS011;10871;50.144;8.428;2023-04-15T01:52:07;10.23;;;5.30;;
21420;SDS011;10871;50.144;8.428;2023-04-15T01:54:33;11.32;;;4.82;;
21420;SDS011;10871;50.144;8.428;2023-04-15T01:57:00;14.23;;;5.60;;
21420;SDS011;10871;50.144;8.428;2023-04-15T01:59:29;9.85;;;5.20;;
21420;SDS011;10871;50.144;8.428;2023-04-15T02:01:57;13.07;;;5.05;;
21420;SDS011;10871;50.144;8.428;2023-04-15T02:04:25;14.07;;;6.18;;
21420;SDS011;10871;50.144;8.428;2023-04-15T02:06:53;11.88;;;6.20;;
21420;SDS011;10871;50.144;8.428;2023-04-15T02:09:20;13.30;;;5.78;;
21420;SDS011;10871;50.144;8.428;2023-04-15T02:11:47;10.82;;;6.07;;
21420;SDS011;10871;50.144;8.428;2023-04-15T02:14:14;15.90;;;6.38;;
21420;SDS011;10871;50.144;8.428;2023-04-15T02:16:40;13.15;;;6.07;;
21420;SDS011;10871;50.144;8.428;2023-04-15T02:19:07;13.40;;;6.20;;
21420;SDS011;10871;50.144;8.428;2023-04-15T02:21:36;9.88;;;5.28;;
21420;SDS011;10871;50.144;8.428;2023-04-15T02:24:02;9.43;;;6.03;;
21420;SDS011;10871;50.144;8.428;2023-04-15T02:26:31;10.75;;;5.90;;
21420;SDS011;10871;50.144;8.428;2023-04-15T02:28:58;7.85;;;5.30;;
21420;SDS011;10871;50.144;8.428;2023-04-15T02:31:25;9.07;;;5.53;;
21420;SDS011;10871;50.144;8.428;2023-04-15T02:33:52;10.52;;;5.28;;
21420;SDS011;10871;50.144;8.428;2023-04-15T02:36:20;10.00;;;5.35;;
21420;SDS011;10871;50.144;8.428;2023-04-15T02:38:46;10.65;;;5.20;;
21420;SDS011;10871;50.144;8.428;2023-04-15T02:41:14;11.48;;;4.90;;
21420;SDS011;10871;50.144;8.428;2023-04-15T02:43:43;6.85;;;4.60;;
21420;SDS011;10871;50.144;8.428;2023-04-15T02:46:11;8.70;;;5.15;;
21420;SDS011;10871;50.144;8.428;2023-04-15T02:48:40;10.45;;;5.22;;
21420;SDS011;10871;50.144;8.428;2023-04-15T02:51:11;10.07;;;5.20;;
21420;SDS011;10871;50.144;8.428;2023-04-15T02:53:38;8.82;;;5.03;;
21420;SDS011;10871;50.144;8.428;2023-04-15T02:56:04;7.03;;;4.28;;
21420;SDS011;10871;50.144;8.428;2023-04-15T02:58:31;7.88;;;4.68;;
21420;SDS011;10871;50.144;8.428;2023-04-15T03:01:00;7.15;;;4.40;;
21420;SDS011;10871;50.144;8.428;2023-04-15T03:03:27;7.75;;;4.53;;
21420;SDS011;10871;50.144;8.428;2023-04-15T03:05:54;6.35;;;4.35;;
21420;SDS011;10871;50.144;8.428;2023-04-15T03:08:21;7.68;;;4.07;;
21420;SDS011;10871;50.144;8.428;2023-04-15T03:10:48;7.53;;;4.18;;
21420;SDS011;10871;50.144;8.428;2023-04-15T03:13:15;8.98;;;4.40;;
21420;SDS011;10871;50.144;8.428;2023-04-15T03:15:42;6.68;;;4.05;;
21420;SDS011;10871;50.144;8.428;2023-04-15T03:18:09;9.38;;;4.93;;
21420;SDS011;10871;50.144;8.428;2023-04-15T03:20:36;10.13;;;4.95;;
21420;SDS011;10871;50.144;8.428;2023-04-15T03:23:02;9.68;;;4.30;;
21420;SDS011;10871;50.144;8.428;2023-04-15T03:25:29;7.28;;;4.50;;
21420;SDS011;10871;50.144;8.428;2023-04-15T03:27:55;8.60;;;4.90;;
21420;SDS011;10871;50.144;8.428;2023-04-15T03:30:22;7.55;;;5.00;;
21420;SDS011;10871;50.144;8.428;2023-04-15T03:32:49;9.13;;;4.22;;
21420;SDS011;10871;50.144;8.428;2023-04-15T03:35:15;8.93;;;4.53;;
21420;SDS011;10871;50.144;8.428;2023-04-15T03:37:42;7.68;;;4.55;;
21420;SDS011;10871;50.144;8.428;2023-04-15T03:40:09;7.93;;;3.83;;
21420;SDS011;10871;50.144;8.428;2023-04-15T03:42:35;6.80;;;4.22;;
21420;SDS011;10871;50.144;8.428;2023-04-15T03:45:02;6.28;;;4.15;;
21420;SDS011;10871;50.144;8.428;2023-04-15T03:47:29;9.05;;;4.28;;
21420;SDS011;10871;50.144;8.428;2023-04-15T03:49:57;6.32;;;4.05;;
21420;SDS011;10871;50.144;8.428;2023-04-15T03:52:23;10.32;;;4.18;;
21420;SDS011;10871;50.144;8.428;2023-04-15T03:54:50;9.27;;;4.20;;
21420;SDS011;10871;50.144;8.428;2023-04-15T03:57:16;6.50;;;4.20;;
21420;SDS011;10871;50.144;8.428;2023-04-15T03:59:43;6.13;;;3.70;;
21420;SDS011;10871;50.144;8.428;2023-04-15T04:02:09;7.70;;;4.10;;
21420;SDS011;10871;50.144;8.428;2023-04-15T04:04:36;5.05;;;4.05;;
21420;SDS011;10871;50.144;8.428;2023-04-15T04:07:02;9.77;;;4.13;;
21420;SDS011;10871;50.144;8.428;2023-04-15T04:09:29;8.07;;;3.83;;
21420;SDS011;10871;50.144;8.428;2023-04-15T04:11:56;5.95;;;3.45;;
21420;SDS011;10871;50.144;8.428;2023-04-15T04:14:23;7.65;;;4.55;;
21420;SDS011;10871;50.144;8.428;2023-04-15T04:16:54;5.95;;;4.18;;
21420;SDS011;10871;50.144;8.428;2023-04-15T04:19:22;7.05;;;4.05;;
21420;SDS011;10871;50.144;8.428;2023-04-15T04:21:48;5.75;;;3.85;;
21420;SDS011;10871;50.144;8.428;2023-04-15T04:24:15;7.80;;;4.07;;
21420;SDS011;10871;50.144;8.428;2023-04-15T04:26:42;8.07;;;4.30;;
21420;SDS011;10871;50.144;8.428;2023-04-15T04:29:08;5.30;;;3.80;;
21420;SDS011;10871;50.144;8.428;2023-04-15T04:31:35;5.47;;;3.85;;
21420;SDS011;10871;50.144;8.428;2023-04-15T04:34:01;7.22;;;3.80;;
21420;SDS011;10871;50.144;8.428;2023-04-15T04:36:28;6.82;;;3.78;;
21420;SDS011;10871;50.144;8.428;2023-04-15T04:38:55;9.25;;;4.13;;
21420;SDS011;10871;50.144;8.428;2023-04-15T04:41:22;6.35;;;3.90;;
21420;SDS011;10871;50.144;8.428;2023-04-15T04:43:49;8.35;;;4.28;;
21420;SDS011;10871;50.144;8.428;2023-04-15T04:46:16;6.25;;;3.70;;
21420;SDS011;10871;50.144;8.428;2023-04-15T04:48:44;6.68;;;3.97;;
21420;SDS011;10871;50.144;8.428;2023-04-15T04:51:12;6.78;;;3.95;;
21420;SDS011;10871;50.144;8.428;2023-04-15T04:53:40;5.80;;;3.60;;
21420;SDS011;10871;50.144;8.428;2023-04-15T04:56:06;7.60;;;4.20;;
21420;SDS011;10871;50.144;8.428;2023-04-15T04:58:33;9.55;;;3.65;;
21420;SDS011;10871;50.144;8.428;2023-04-15T05:00:59;5.25;;;3.80;;
21420;SDS011;10871;50.144;8.428;2023-04-15T05:03:26;4.82;;;3.55;;
21420;SDS011;10871;50.144;8.428;2023-04-15T05:05:53;9.05;;;3.78;;
21420;SDS011;10871;50.144;8.428;2023-04-15T05:08:20;5.22;;;3.40;;
21420;SDS011;10871;50.144;8.428;2023-04-15T05:10:47;5.57;;;3.63;;
21420;SDS011;10871;50.144;8.428;2023-04-15T05:13:13;5.13;;;3.30;;
21420;SDS011;10871;50.144;8.428;2023-04-15T05:15:40;4.15;;;3.55;;
21420;SDS011;10871;50.144;8.428;2023-04-15T05:18:08;6.78;;;3.60;;
21420;SDS011;10871;50.144;8.428;2023-04-15T05:20:35;5.00;;;3.70;;
21420;SDS011;10871;50.144;8.428;2023-04-15T05:23:01;4.78;;;3.80;;
21420;SDS011;10871;50.144;8.428;2023-04-15T05:25:28;4.80;;;3.28;;
21420;SDS011;10871;50.144;8.428;2023-04-15T05:27:54;6.70;;;3.38;;
21420;SDS011;10871;50.144;8.428;2023-04-15T05:30:21;6.85;;;3.50;;
21420;SDS011;10871;50.144;8.428;2023-04-15T05:32:48;7.45;;;3.67;;
21420;SDS011;10871;50.144;8.428;2023-04-15T05:35:15;7.10;;;3.30;;
21420;SDS011;10871;50.144;8.428;2023-04-15T05:37:42;5.25;;;3.33;;
21420;SDS011;10871;50.144;8.428;2023-04-15T05:40:09;4.93;;;3.15;;
21420;SDS011;10871;50.144;8.428;2023-04-15T05:42:36;7.25;;;3.60;;
21420;SDS011;10871;50.144;8.428;2023-04-15T05:45:03;5.95;;;3.85;;
21420;SDS011;10871;50.144;8.428;2023-04-15T05:47:30;4.43;;;3.38;;
21420;SDS011;10871;50.144;8.428;2023-04-15T05:49:59;5.68;;;3.67;;
21420;SDS011;10871;50.144;8.428;2023-04-15T05:52:25;5.40;;;3.40;;
21420;SDS011;10871;50.144;8.428;2023-04-15T05:54:52;6.22;;;3.50;;
21420;SDS011;10871;50.144;8.428;2023-04-15T05:57:18;5.22;;;3.38;;
21420;SDS011;10871;50.144;8.428;2023-04-15T05:59:45;4.82;;;3.10;;
21420;SDS011;10871;50.144;8.428;2023-04-15T06:02:12;7.35;;;3.40;;
21420;SDS011;10871;50.144;8.428;2023-04-15T06:04:39;9.55;;;3.50;;
21420;SDS011;10871;50.144;8.428;2023-04-15T06:07:05;5.45;;;3.20;;
21420;SDS011;10871;50.144;8.428;2023-04-15T06:09:34;7.95;;;3.70;;
21420;SDS011;10871;50.144;8.428;2023-04-15T06:12:01;6.35;;;3.20;;
21420;SDS011;10871;50.144;8.428;2023-04-15T06:14:28;4.72;;;3.08;;
21420;SDS011;10871;50.144;8.428;2023-04-15T06:16:55;6.07;;;3.60;;
21420;SDS011;10871;50.144;8.428;2023-04-15T06:19:21;8.23;;;3.22;;
21420;SDS011;10871;50.144;8.428;2023-04-15T06:21:48;6.72;;;3.35;;
21420;SDS011;10871;50.144;8.428;2023-04-15T06:24:15;7.90;;;3.28;;
21420;SDS011;10871;50.144;8.428;2023-04-15T06:26:41;5.65;;;3.22;;
21420;SDS011;10871;50.144;8.428;2023-04-15T06:29:08;8.40;;;3.30;;
21420;SDS011;10871;50.144;8.428;2023-04-15T06:31:37;6.47;;;3.67;;
21420;SDS011;10871;50.144;8.428;2023-04-15T06:34:05;9.60;;;4.78;;
21420;SDS011;10871;50.144;8.428;2023-04-15T06:36:32;7.28;;;4.15;;
21420;SDS011;10871;50.144;8.428;2023-04-15T06:38:58;4.95;;;3.58;;
21420;SDS011;10871;50.144;8.428;2023-04-15T06:41:25;6.35;;;3.47;;
21420;SDS011;10871;50.144;8.428;2023-04-15T06:43:52;8.18;;;3.40;;
21420;SDS011;10871;50.144;8.428;2023-04-15T06:46:19;6.00;;;3.47;;
21420;SDS011;10871;50.144;8.428;2023-04-15T06:48:45;5.82;;;3.55;;
21420;SDS011;10871;50.144;8.428;2023-04-15T06:51:12;5.38;;;3.60;;
21420;SDS011;10871;50.144;8.428;2023-04-15T06:53:39;5.75;;;3.17;;
21420;SDS011;10871;50.144;8.428;2023-04-15T06:56:07;5.32;;;3.17;;
21420;SDS011;10871;50.144;8.428;2023-04-15T06:58:35;4.70;;;3.38;;
21420;SDS011;10871;50.144;8.428;2023-04-15T07:01:03;6.07;;;3.75;;
21420;SDS011;10871;50.144;8.428;2023-04-15T07:03:30;7.93;;;4.20;;
21420;SDS011;10871;50.144;8.428;2023-04-15T07:05:58;4.55;;;3.90;;
21420;SDS011;10871;50.144;8.428;2023-04-15T07:08:25;6.05;;;4.05;;
21420;SDS011;10871;50.144;8.428;2023-04-15T07:10:53;9.48;;;4.40;;
21420;SDS011;10871;50.144;8.428;2023-04-15T07:13:19;5.35;;;4.05;;
21420;SDS011;10871;50.144;8.428;2023-04-15T07:15:46;5.68;;;3.88;;
21420;SDS011;10871;50.144;8.428;2023-04-15T07:18:14;5.25;;;3.35;;
21420;SDS011;10871;50.144;8.428;2023-04-15T07:20:43;5.30;;;3.10;;
21420;SDS011;10871;50.144;8.428;2023-04-15T07:23:10;7.32;;;3.38;;
21420;SDS011;10871;50.144;8.428;2023-04-15T07:25:36;3.92;;;2.72;;
21420;SDS011;10871;50.144;8.428;2023-04-15T07:28:03;6.75;;;3.53;;
21420;SDS011;10871;50.144;8.428;2023-04-15T07:30:30;5.20;;;3.78;;
21420;SDS011;10871;50.144;8.428;2023-04-15T07:32:57;4.90;;;3.20;;
21420;SDS011;10871;50.144;8.428;2023-04-15T07:35:24;3.13;;;2.30;;
21420;SDS011;10871;50.144;8.428;2023-04-15T07:37:53;3.60;;;2.33;;
21420;SDS011;10871;50.144;8.428;2023-04-15T07:40:20;5.00;;;2.67;;
21420;SDS011;10871;50.144;8.428;2023-04-15T07:42:47;4.45;;;2.80;;
21420;SDS011;10871;50.144;8.428;2023-04-15T07:45:14;5.63;;;3.85;;
21420;SDS011;10871;50.144;8.428;2023-04-15T07:47:41;4.45;;;2.90;;
21420;SDS011;10871;50.144;8.428;2023-04-15T07:50:08;5.25;;;2.38;;
21420;SDS011;10871;50.144;8.428;2023-04-15T07:52:36;6.68;;;6.10;;
21420;SDS011;10871;50.144;8.428;2023-04-15T07:55:05;5.35;;;3.65;;
21420;SDS011;10871;50.144;8.428;2023-04-15T07:57:38;2.90;;;1.90;;
21420;SDS011;10871;50.144;8.428;2023-04-15T08:00:04;2.55;;;2.10;;
21420;SDS011;10871;50.144;8.428;2023-04-15T08:02:39;4.82;;;2.30;;
21420;SDS011;10871;50.144;8.428;2023-04-15T08:05:07;3.65;;;2.10;;
21420;SDS011;10871;50.144;8.428;2023-04-15T08:07:36;5.18;;;2.78;;
21420;SDS011;10871;50.144;8.428;2023-04-15T08:10:03;3.65;;;2.67;;
21420;SDS011;10871;50.144;8.428;2023-04-15T08:12:31;4.03;;;2.58;;
21420;SDS011;10871;50.144;8.428;2023-04-15T08:14:57;6.20;;;3.70;;
21420;SDS011;10871;50.144;8.428;2023-04-15T08:17:24;3.95;;;2.75;;
21420;SDS011;10871;50.144;8.428;2023-04-15T08:19:50;3.53;;;2.88;;
21420;SDS011;10871;50.144;8.428;2023-04-15T08:22:17;5.85;;;5.10;;
21420;SDS011;10871;50.144;8.428;2023-04-15T08:24:46;3.60;;;2.58;;
21420;SDS011;10871;50.144;8.428;2023-04-15T08:27:12;3.80;;;2.40;;
21420;SDS011;10871;50.144;8.428;2023-04-15T08:29:39;2.45;;;2.22;;
21420;SDS011;10871;50.144;8.428;2023-04-15T08:32:05;3.88;;;2.22;;
21420;SDS011;10871;50.144;8.428;2023-04-15T08:34:33;2.58;;;2.03;;
21420;SDS011;10871;50.144;8.428;2023-04-15T08:37:00;2.78;;;2.10;;
21420;SDS011;10871;50.144;8.428;2023-04-15T08:39:26;3.47;;;2.58;;
21420;SDS011;10871;50.144;8.428;2023-04-15T08:41:59;3.90;;;2.20;;
21420;SDS011;10871;50.144;8.428;2023-04-15T08:44:31;2.92;;;1.60;;
21420;SDS011;10871;50.144;8.428;2023-04-15T08:47:01;3.22;;;2.15;;
21420;SDS011;10871;50.144;8.428;2023-04-15T08:49:28;4.10;;;1.55;;
21420;SDS011;10871;50.144;8.428;2023-04-15T08:51:57;1.70;;;1.58;;
21420;SDS011;10871;50.144;8.428;2023-04-15T08:54:24;3.05;;;1.67;;
21420;SDS011;10871;50.144;8.428;2023-04-15T08:56:51;2.85;;;1.60;;
21420;SDS011;10871;50.144;8.428;2023-04-15T08:59:18;1.77;;;1.50;;
21420;SDS011;10871;50.144;8.428;2023-04-15T09:01:48;2.33;;;1.20;;
21420;SDS011;10871;50.144;8.428;2023-04-15T09:04:16;3.95;;;1.75;;
21420;SDS011;10871;50.144;8.428;2023-04-15T09:06:43;3.50;;;1.30;;
21420;SDS011;10871;50.144;8.428;2023-04-15T09:09:11;2.55;;;1.20;;
21420;SDS011;10871;50.144;8.428;2023-04-15T09:11:37;3.20;;;1.50;;
21420;SDS011;10871;50.144;8.428;2023-04-15T09:14:04;2.25;;;1.50;;
21420;SDS011;10871;50.144;8.428;2023-04-15T09:16:30;1.92;;;1.40;;
21420;SDS011;10871;50.144;8.428;2023-04-15T09:18:57;3.00;;;2.55;;
21420;SDS011;10871;50.144;8.428;2023-04-15T09:21:24;3.05;;;1.30;;
21420;SDS011;10871;50.144;8.428;2023-04-15T09:23:57;2.38;;;1.50;;
21420;SDS011;10871;50.144;8.428;2023-04-15T09:26:34;2.75;;;1.30;;
21420;SDS011;10871;50.144;8.428;2023-04-15T09:29:05;3.38;;;2.17;;
21420;SDS011;10871;50.144;8.428;2023-04-15T09:31:33;3.55;;;1.45;;
21420;SDS011;10871;50.144;8.428;2023-04-15T09:33:59;3.00;;;1.98;;
21420;SDS011;10871;50.144;8.428;2023-04-15T09:36:28;3.67;;;1.70;;
21420;SDS011;10871;50.144;8.428;2023-04-15T09:38:56;2.08;;;1.55;;
21420;SDS011;10871;50.144;8.428;2023-04-15T09:41:23;3.85;;;1.70;;
21420;SDS011;10871;50.144;8.428;2023-04-15T09:43:51;2.85;;;1.60;;
21420;SDS011;10871;50.144;8.428;2023-04-15T09:46:17;3.55;;;1.55;;
21420;SDS011;10871;50.144;8.428;2023-04-15T09:48:44;2.90;;;1.30;;
21420;SDS011;10871;50.144;8.428;2023-04-15T09:51:11;3.17;;;1.92;;
21420;SDS011;10871;50.144;8.428;2023-04-15T09:53:38;3.95;;;1.80;;
21420;SDS011;10871;50.144;8.428;2023-04-15T09:56:05;2.70;;;1.33;;
21420;SDS011;10871;50.144;8.428;2023-04-15T09:58:34;3.17;;;1.42;;
21420;SDS011;10871;50.144;8.428;2023-04-15T10:01:02;3.83;;;1.90;;
21420;SDS011;10871;50.144;8.428;2023-04-15T10:03:32;1.33;;;1.20;;
21420;SDS011;10871;50.144;8.428;2023-04-15T10:06:05;3.72;;;1.58;;
21420;SDS011;10871;50.144;8.428;2023-04-15T10:08:33;2.72;;;1.20;;
21420;SDS011;10871;50.144;8.428;2023-04-15T10:11:00;2.72;;;1.40;;
21420;SDS011;10871;50.144;8.428;2023-04-15T10:13:29;1.80;;;1.70;;
21420;SDS011;10871;50.144;8.428;2023-04-15T10:15:59;2.63;;;2.13;;
21420;SDS011;10871;50.144;8.428;2023-04-15T10:18:27;2.25;;;1.75;;
21420;SDS011;10871;50.144;8.428;2023-04-15T10:20:53;2.20;;;1.33;;
21420;SDS011;10871;50.144;8.428;2023-04-15T10:23:21;2.15;;;1.20;;
21420;SDS011;10871;50.144;8.428;2023-04-15T10:25:51;1.80;;;1.10;;
21420;SDS011;10871;50.144;8.428;2023-04-15T10:28:20;2.55;;;1.50;;
21420;SDS011;10871;50.144;8.428;2023-04-15T10:30:49;1.80;;;1.20;;
21420;SDS011;10871;50.144;8.428;2023-04-15T10:33:16;5.32;;;4.93;;
21420;SDS011;10871;50.144;8.428;2023-04-15T10:35:43;2.58;;;1.25;;
21420;SDS011;10871;50.144;8.428;2023-04-15T10:41:10;2.67;;;1.63;;
21420;SDS011;10871;50.144;8.428;2023-04-15T10:43:37;2.75;;;1.58;;
21420;SDS011;10871;50.144;8.428;2023-04-15T10:46:04;1.40;;;1.30;;
21420;SDS011;10871;50.144;8.428;2023-04-15T10:48:31;2.13;;;1.42;;
21420;SDS011;10871;50.144;8.428;2023-04-15T10:51:02;5.45;;;1.67;;
21420;SDS011;10871;50.144;8.428;2023-04-15T10:53:29;3.08;;;1.60;;
21420;SDS011;10871;50.144;8.428;2023-04-15T10:55:57;1.75;;;1.40;;
21420;SDS011;10871;50.144;8.428;2023-04-15T10:58:24;2.05;;;1.60;;
21420;SDS011;10871;50.144;8.428;2023-04-15T11:00:51;2.17;;;1.60;;
21420;SDS011;10871;50.144;8.428;2023-04-15T11:03:37;3.65;;;1.65;;
21420;SDS011;10871;50.144;8.428;2023-04-15T11:06:05;5.28;;;2.10;;
21420;SDS011;10871;50.144;8.428;2023-04-15T11:11:17;1.77;;;1.60;;
21420;SDS011;10871;50.144;8.428;2023-04-15T11:13:48;3.15;;;1.63;;
21420;SDS011;10871;50.144;8.428;2023-04-15T11:16:15;2.45;;;2.05;;
21420;SDS011;10871;50.144;8.428;2023-04-15T11:18:42;4.35;;;2.00;;
21420;SDS011;10871;50.144;8.428;2023-04-15T11:21:18;2.30;;;1.90;;
21420;SDS011;10871;50.144;8.428;2023-04-15T11:23:45;4.03;;;2.15;;
21420;SDS011;10871;50.144;8.428;2023-04-15T11:26:14;3.45;;;1.90;;
21420;SDS011;10871;50.144;8.428;2023-04-15T11:28:42;4.18;;;1.90;;
21420;SDS011;10871;50.144;8.428;2023-04-15T11:31:10;4.82;;;2.25;;
21420;SDS011;10871;50.144;8.428;2023-04-15T11:33:38;2.33;;;2.13;;
21420;SDS011;10871;50.144;8.428;2023-04-15T11:36:09;2.60;;;2.00;;
21420;SDS011;10871;50.144;8.428;2023-04-15T11:38:36;2.85;;;2.28;;
21420;SDS011;10871;50.144;8.428;2023-04-15T11:41:03;2.67;;;2.00;;
21420;SDS011;10871;50.144;8.428;2023-04-15T11:43:30;2.85;;;2.05;;
21420;SDS011;10871;50.144;8.428;2023-04-15T11:45:58;3.58;;;2.28;;
21420;SDS011;10871;50.144;8.428;2023-04-15T11:48:29;2.67;;;2.47;;
21420;SDS011;10871;50.144;8.428;2023-04-15T11:50:57;2.17;;;1.80;;
21420;SDS011;10871;50.144;8.428;2023-04-15T11:53:35;4.75;;;2.00;;
21420;SDS011;10871;50.144;8.428;2023-04-15T11:56:03;1.67;;;1.58;;
21420;SDS011;10871;50.144;8.428;2023-04-15T11:58:30;3.03;;;1.63;;
21420;SDS011;10871;50.144;8.428;2023-04-15T12:00:59;3.13;;;1.63;;
21420;SDS011;10871;50.144;8.428;2023-04-15T12:03:30;2.35;;;1.25;;
21420;SDS011;10871;50.144;8.428;2023-04-15T12:06:07;2.22;;;1.30;;
21420;SDS011;10871;50.144;8.428;2023-04-15T12:11:20;1.98;;;1.10;;
21420;SDS011;10871;50.144;8.428;2023-04-15T12:14:02;1.38;;;1.10;;
21420;SDS011;10871;50.144;8.428;2023-04-15T12:16:29;1.23;;;1.13;;
21420;SDS011;10871;50.144;8.428;2023-04-15T12:18:57;1.30;;;1.20;;
21420;SDS011;10871;50.144;8.428;2023-04-15T12:21:33;1.77;;;1.00;;
21420;SDS011;10871;50.144;8.428;2023-04-15T12:24:02;1.92;;;1.40;;
21420;SDS011;10871;50.144;8.428;2023-04-15T12:26:33;1.70;;;1.30;;
21420;SDS011;10871;50.144;8.428;2023-04-15T12:29:03;1.42;;;1.33;;
21420;SDS011;10871;50.144;8.428;2023-04-15T12:31:30;1.10;;;1.10;;
21420;SDS011;10871;50.144;8.428;2023-04-15T12:33:57;2.00;;;1.60;;
21420;SDS011;10871;50.144;8.428;2023-04-15T12:36:24;1.60;;;1.50;;
21420;SDS011;10871;50.144;8.428;2023-04-15T12:38:50;1.48;;;1.35;;
21420;SDS011;10871;50.144;8.428;2023-04-15T12:41:17;3.13;;;1.60;;
21420;SDS011;10871;50.144;8.428;2023-04-15T12:43:53;1.85;;;1.75;;
21420;SDS011;10871;50.144;8.428;2023-04-15T12:46:20;2.13;;;1.50;;
21420;SDS011;10871;50.144;8.428;2023-04-15T12:48:47;2.17;;;1.60;;
21420;SDS011;10871;50.144;8.428;2023-04-15T12:51:14;1.40;;;1.30;;
21420;SDS011;10871;50.144;8.428;2023-04-15T12:53:40;2.08;;;1.30;;
21420;SDS011;10871;50.144;8.428;2023-04-15T12:56:07;2.67;;;1.40;;
21420;SDS011;10871;50.144;8.428;2023-04-15T12:58:34;2.00;;;1.42;;
21420;SDS011;10871;50.144;8.428;2023-04-15T13:01:01;1.80;;;1.30;;
21420;SDS011;10871;50.144;8.428;2023-04-15T13:03:33;1.30;;;1.20;;
21420;SDS011;10871;50.144;8.428;2023-04-15T13:06:00;1.48;;;1.30;;
21420;SDS011;10871;50.144;8.428;2023-04-15T13:08:27;1.40;;;1.30;;
21420;SDS011;10871;50.144;8.428;2023-04-15T13:10:54;1.55;;;1.40;;
21420;SDS011;10871;50.144;8.428;2023-04-15T13:13:21;1.42;;;1.33;;
21420;SDS011;10871;50.144;8.428;2023-04-15T13:15:47;3.65;;;1.40;;
21420;SDS011;10871;50.144;8.428;2023-04-15T13:18:15;1.77;;;1.40;;
21420;SDS011;10871;50.144;8.428;2023-04-15T13:20:41;1.40;;;1.30;;
21420;SDS011;10871;50.144;8.428;2023-04-15T13:23:08;1.40;;;1.30;;
21420;SDS011;10871;50.144;8.428;2023-04-15T13:25:35;1.88;;;1.63;;
21420;SDS011;10871;50.144;8.428;2023-04-15T13:28:01;1.70;;;1.60;;
21420;SDS011;10871;50.144;8.428;2023-04-15T13:30:28;1.65;;;1.55;;
21420;SDS011;10871;50.144;8.428;2023-04-15T13:32:55;1.85;;;1.60;;
21420;SDS011;10871;50.144;8.428;2023-04-15T13:35:22;1.50;;;1.40;;
21420;SDS011;10871;50.144;8.428;2023-04-15T13:37:49;1.50;;;1.40;;
21420;SDS011;10871;50.144;8.428;2023-04-15T13:40:18;1.83;;;1.60;;
21420;SDS011;10871;50.144;8.428;2023-04-15T13:42:44;1.42;;;1.33;;
21420;SDS011;10871;50.144;8.428;2023-04-15T13:45:12;2.38;;;1.50;;
21420;SDS011;10871;50.144;8.428;2023-04-15T13:47:41;1.98;;;1.50;;
21420;SDS011;10871;50.144;8.428;2023-04-15T13:50:07;4.70;;;1.77;;
21420;SDS011;10871;50.144;8.428;2023-04-15T13:52:34;2.20;;;2.00;;
21420;SDS011;10871;50.144;8.428;2023-04-15T13:55:01;1.77;;;1.60;;
21420;SDS011;10871;50.144;8.428;2023-04-15T13:57:45;1.80;;;1.70;;
21420;SDS011;10871;50.144;8.428;2023-04-15T14:00:13;1.67;;;1.58;;
21420;SDS011;10871;50.144;8.428;2023-04-15T14:02:40;1.70;;;1.60;;
21420;SDS011;10871;50.144;8.428;2023-04-15T14:05:07;1.52;;;1.42;;
21420;SDS011;10871;50.144;8.428;2023-04-15T14:07:34;4.15;;;1.80;;
21420;SDS011;10871;50.144;8.428;2023-04-15T14:10:00;1.48;;;1.38;;
21420;SDS011;10871;50.144;8.428;2023-04-15T14:12:28;1.85;;;1.60;;
21420;SDS011;10871;50.144;8.428;2023-04-15T14:14:54;1.67;;;1.58;;
21420;SDS011;10871;50.144;8.428;2023-04-15T14:17:21;2.03;;;1.70;;
21420;SDS011;10871;50.144;8.428;2023-04-15T14:19:48;1.98;;;1.80;;
21420;SDS011;10871;50.144;8.428;2023-04-15T14:22:15;2.30;;;2.10;;
21420;SDS011;10871;50.144;8.428;2023-04-15T14:24:42;2.30;;;2.10;;
21420;SDS011;10871;50.144;8.428;2023-04-15T14:27:09;2.53;;;2.33;;
21420;SDS011;10871;50.144;8.428;2023-04-15T14:29:37;2.80;;;2.40;;
21420;SDS011;10871;50.144;8.428;2023-04-15T14:32:04;2.25;;;2.03;;
21420;SDS011;10871;50.144;8.428;2023-04-15T14:34:38;2.60;;;2.40;;
21420;SDS011;10871;50.144;8.428;2023-04-15T14:37:06;2.63;;;2.42;;
21420;SDS011;10871;50.144;8.428;2023-04-15T14:39:33;2.70;;;2.50;;
21420;SDS011;10871;50.144;8.428;2023-04-15T14:42:00;2.53;;;2.30;;
21420;SDS011;10871;50.144;8.428;2023-04-15T14:44:27;2.25;;;2.05;;
21420;SDS011;10871;50.144;8.428;2023-04-15T14:46:54;2.30;;;2.10;;
21420;SDS011;10871;50.144;8.428;2023-04-15T14:49:20;2.10;;;1.90;;
21420;SDS011;10871;50.144;8.428;2023-04-15T14:51:49;1.70;;;1.60;;
21420;SDS011;10871;50.144;8.428;2023-04-15T14:54:16;2.00;;;1.80;;
21420;SDS011;10871;50.144;8.428;2023-04-15T14:56:42;2.00;;;1.80;;